Time,TemperatureF,DewpointF,PressureIn,WindDirection,WindDirectionDegrees,WindSpeedMPH,WindSpeedGustMPH,Humidity,HourlyPrecipIn,Conditions,Clouds,dailyrainin,SoftwareType,DateUTC
2013-10-25 00:01:00,48.0,35.0,-100.00,SSE,161,1.0,4.0,61,0.00,,,0.00,,2013-10-25 06:01:00,
2013-10-25 00:21:00,48.0,35.0,-100.00,NNE,28,4.0,7.0,61,0.00,,,0.00,,2013-10-25 06:21:00,
2013-10-25 00:31:00,48.0,35.0,-100.00,NNE,28,4.0,7.0,61,0.00,,,0.00,,2013-10-25 06:31:00,
2013-10-25 00:51:00,50.0,35.0,-100.00,NNE,20,6.0,11.0,56,0.00,,,0.00,,2013-10-25 06:51:00,
2013-10-25 01:01:00,50.0,35.0,-100.00,NNE,20,6.0,11.0,56,0.00,,,0.00,,2013-10-25 07:01:00,
2013-10-25 01:21:00,50.0,35.0,-100.00,NNE,16,9.0,15.0,55,0.00,,,0.00,,2013-10-25 07:21:00,
2013-10-25 01:31:00,50.0,35.0,-100.00,NNE,16,9.0,15.0,55,0.00,,,0.00,,2013-10-25 07:31:00,
2013-10-25 01:51:00,51.0,35.0,-100.00,North,3,7.0,12.0,54,0.00,,,0.00,,2013-10-25 07:51:00,
2013-10-25 02:01:00,51.0,35.0,-100.00,North,3,7.0,12.0,54,0.00,,,0.00,,2013-10-25 08:01:00,
2013-10-25 02:21:00,50.0,34.0,-100.00,North,352,7.0,14.0,56,0.00,,,0.00,,2013-10-25 08:21:00,
2013-10-25 02:31:00,50.0,34.0,-100.00,North,352,7.0,14.0,56,0.00,,,0.00,,2013-10-25 08:31:00,
2013-10-25 02:51:00,48.0,34.0,-100.00,North,11,8.0,11.0,57,0.00,,,0.00,,2013-10-25 08:51:00,
2013-10-25 03:01:00,48.0,34.0,-100.00,North,11,8.0,11.0,57,0.00,,,0.00,,2013-10-25 09:01:00,
2013-10-25 03:21:00,49.0,34.0,-100.00,North,8,6.0,12.0,55,0.00,,,0.00,,2013-10-25 09:21:00,
2013-10-25 03:32:00,49.0,34.0,-100.00,North,8,6.0,12.0,55,0.00,,,0.00,,2013-10-25 09:32:00,
2013-10-25 03:52:00,49.0,34.0,-100.00,North,3,7.0,12.0,54,0.00,,,0.00,,2013-10-25 09:52:00,
2013-10-25 04:01:00,49.0,34.0,-100.00,North,3,7.0,12.0,54,0.00,,,0.00,,2013-10-25 10:01:00,
2013-10-25 04:21:00,47.0,33.0,-100.00,North,0,7.0,12.0,57,0.00,,,0.00,,2013-10-25 10:21:00,
2013-10-25 04:32:00,47.0,33.0,-100.00,North,0,7.0,12.0,57,0.00,,,0.00,,2013-10-25 10:32:00,
2013-10-25 04:51:00,47.0,33.0,-100.00,North,357,5.0,9.0,57,0.00,,,0.00,,2013-10-25 10:51:00,
2013-10-25 05:01:00,47.0,33.0,-100.00,North,357,5.0,9.0,57,0.00,,,0.00,,2013-10-25 11:01:00,
2013-10-25 05:21:00,48.0,33.0,-100.00,North,353,7.0,12.0,57,0.00,,,0.00,,2013-10-25 11:21:00,
2013-10-25 05:32:00,48.0,33.0,-100.00,North,353,7.0,12.0,57,0.00,,,0.00,,2013-10-25 11:32:00,
2013-10-25 05:51:00,48.0,33.0,-100.00,North,354,4.0,11.0,56,0.00,,,0.00,,2013-10-25 11:51:00,
2013-10-25 06:01:00,48.0,33.0,-100.00,North,354,4.0,11.0,56,0.00,,,0.00,,2013-10-25 12:01:00,
2013-10-25 06:21:00,46.0,33.0,-100.00,North,3,5.0,9.0,59,0.00,,,0.00,,2013-10-25 12:21:00,
2013-10-25 06:31:00,46.0,33.0,-100.00,North,3,5.0,9.0,59,0.00,,,0.00,,2013-10-25 12:31:00,
2013-10-25 06:51:00,46.0,33.0,-100.00,North,7,5.0,9.0,60,0.00,,,0.00,,2013-10-25 12:51:00,
2013-10-25 07:01:00,46.0,33.0,-100.00,North,7,5.0,9.0,60,0.00,,,0.00,,2013-10-25 13:01:00,
2013-10-25 07:21:00,44.0,33.0,-100.00,North,357,5.0,8.0,65,0.00,,,0.00,,2013-10-25 13:21:00,
2013-10-25 07:32:00,44.0,33.0,-100.00,North,357,5.0,8.0,65,0.00,,,0.00,,2013-10-25 13:32:00,
2013-10-25 07:52:00,44.0,33.0,-100.00,NNW,335,4.0,6.0,66,0.00,,,0.00,,2013-10-25 13:52:00,
2013-10-25 08:02:00,44.0,33.0,-100.00,NNW,335,4.0,6.0,66,0.00,,,0.00,,2013-10-25 14:02:00,
2013-10-25 08:22:00,45.0,33.0,-100.00,NNW,342,5.0,8.0,63,0.00,,,0.00,,2013-10-25 14:22:00,
2013-10-25 08:31:00,45.0,33.0,-100.00,NNW,342,5.0,8.0,63,0.00,,,0.00,,2013-10-25 14:31:00,
2013-10-25 08:52:00,45.0,32.0,-100.00,NNE,13,5.0,9.0,62,0.00,,,0.00,,2013-10-25 14:52:00,
2013-10-25 09:01:00,45.0,32.0,-100.00,NNE,13,5.0,9.0,62,0.00,,,0.00,,2013-10-25 15:01:00,
2013-10-25 09:21:00,45.0,33.0,-100.00,North,4,6.0,10.0,61,0.00,,,0.00,,2013-10-25 15:21:00,
2013-10-25 09:33:00,45.0,33.0,-100.00,North,4,6.0,10.0,61,0.00,,,0.00,,2013-10-25 15:33:00,
2013-10-25 09:53:00,45.0,33.0,-100.00,North,357,6.0,11.0,60,0.00,,,0.00,,2013-10-25 15:53:00,
2013-10-25 10:03:00,45.0,33.0,-100.00,North,357,6.0,11.0,60,0.00,,,0.00,,2013-10-25 16:03:00,
2013-10-25 10:23:00,48.0,33.0,-100.00,NNE,13,5.0,10.0,55,0.00,,,0.00,,2013-10-25 16:23:00,
2013-10-25 10:33:00,48.0,33.0,-100.00,NNE,13,5.0,10.0,55,0.00,,,0.00,,2013-10-25 16:33:00,
2013-10-25 10:53:00,49.0,33.0,-100.00,North,349,3.0,10.0,53,0.00,,,0.00,,2013-10-25 16:53:00,
2013-10-25 11:03:00,49.0,33.0,-100.00,North,349,3.0,10.0,53,0.00,,,0.00,,2013-10-25 17:03:00,
2013-10-25 11:22:00,53.0,34.0,-100.00,North,7,2.0,5.0,48,0.00,,,0.00,,2013-10-25 17:22:00,
2013-10-25 11:33:00,53.0,34.0,-100.00,North,7,2.0,5.0,48,0.00,,,0.00,,2013-10-25 17:33:00,
2013-10-25 11:52:00,55.0,35.0,-100.00,NE,49,2.0,3.0,46,0.00,,,0.00,,2013-10-25 17:52:00,
2013-10-25 12:02:00,55.0,35.0,-100.00,NE,49,2.0,3.0,46,0.00,,,0.00,,2013-10-25 18:02:00,
2013-10-25 12:21:00,60.0,36.0,-100.00,West,265,1.0,2.0,40,0.00,,,0.00,,2013-10-25 18:21:00,
2013-10-25 12:32:00,60.0,36.0,-100.00,West,265,1.0,2.0,40,0.00,,,0.00,,2013-10-25 18:32:00,
2013-10-25 12:52:00,62.0,36.0,-100.00,SSE,167,1.0,3.0,38,0.00,,,0.00,,2013-10-25 18:52:00,
2013-10-25 13:02:00,62.0,36.0,-100.00,SSE,167,1.0,3.0,38,0.00,,,0.00,,2013-10-25 19:02:00,
2013-10-25 13:22:00,64.0,35.0,-100.00,South,186,3.0,5.0,33,0.00,,,0.00,,2013-10-25 19:22:00,
2013-10-25 13:32:00,64.0,35.0,-100.00,South,186,3.0,5.0,33,0.00,,,0.00,,2013-10-25 19:32:00,
2013-10-25 13:52:00,63.0,34.0,-100.00,South,169,4.0,7.0,34,0.00,,,0.00,,2013-10-25 19:52:00,
2013-10-25 14:02:00,63.0,34.0,-100.00,South,169,4.0,7.0,34,0.00,,,0.00,,2013-10-25 20:02:00,
2013-10-25 14:22:00,64.0,35.0,-100.00,SSE,167,3.0,5.0,34,0.00,,,0.00,,2013-10-25 20:22:00,
2013-10-25 14:32:00,64.0,35.0,-100.00,SSE,167,3.0,5.0,34,0.00,,,0.00,,2013-10-25 20:32:00,
2013-10-25 14:52:00,65.0,36.0,-100.00,South,189,2.0,7.0,34,0.00,,,0.00,,2013-10-25 20:52:00,
2013-10-25 15:02:00,65.0,36.0,-100.00,South,189,2.0,7.0,34,0.00,,,0.00,,2013-10-25 21:02:00,
2013-10-25 15:21:00,65.0,35.0,-100.00,South,178,2.0,5.0,33,0.00,,,0.00,,2013-10-25 21:21:00,
2013-10-25 15:33:00,65.0,35.0,-100.00,South,178,2.0,5.0,33,0.00,,,0.00,,2013-10-25 21:33:00,
2013-10-25 15:54:00,65.0,36.0,-100.00,SSW,196,1.0,4.0,33,0.00,,,0.00,,2013-10-25 21:54:00,
2013-10-25 16:04:00,65.0,36.0,-100.00,SSW,196,1.0,4.0,33,0.00,,,0.00,,2013-10-25 22:04:00,
2013-10-25 16:23:00,65.0,36.0,-100.00,SSW,206,1.0,4.0,34,0.00,,,0.00,,2013-10-25 22:23:00,
2013-10-25 16:34:00,65.0,36.0,-100.00,SSW,206,1.0,4.0,34,0.00,,,0.00,,2013-10-25 22:34:00,
2013-10-25 16:52:00,66.0,36.0,-100.00,SSE,165,4.0,6.0,33,0.00,,,0.00,,2013-10-25 22:52:00,
2013-10-25 17:03:00,66.0,36.0,-100.00,SSE,165,4.0,6.0,33,0.00,,,0.00,,2013-10-25 23:03:00,
2013-10-25 17:22:00,65.0,36.0,-100.00,South,169,2.0,3.0,34,0.00,,,0.00,,2013-10-25 23:22:00,
2013-10-25 17:33:00,65.0,36.0,-100.00,South,169,2.0,3.0,34,0.00,,,0.00,,2013-10-25 23:33:00,
2013-10-25 17:52:00,65.0,37.0,-100.00,South,178,2.0,3.0,34,0.00,,,0.00,,2013-10-25 23:52:00,
2013-10-25 18:02:00,65.0,37.0,-100.00,South,178,2.0,3.0,34,0.00,,,0.00,,2013-10-26 00:02:00,
2013-10-25 18:22:00,63.0,36.0,-100.00,SSE,161,0.0,0.0,36,0.00,,,0.00,,2013-10-26 00:22:00,
2013-10-25 18:32:00,63.0,36.0,-100.00,SSE,161,0.0,0.0,36,0.00,,,0.00,,2013-10-26 00:32:00,
2013-10-25 18:52:00,61.0,38.0,-100.00,South,179,0.0,0.0,42,0.00,,,0.00,,2013-10-26 00:52:00,
2013-10-25 19:01:00,61.0,38.0,-100.00,South,179,0.0,0.0,42,0.00,,,0.00,,2013-10-26 01:01:00,
2013-10-25 19:52:00,53.0,40.0,-100.00,WSW,241,0.0,0.0,60,0.00,,,0.00,,2013-10-26 01:52:00,
2013-10-25 20:02:00,53.0,40.0,-100.00,WSW,241,0.0,0.0,60,0.00,,,0.00,,2013-10-26 02:02:00,
2013-10-25 20:22:00,53.0,39.0,-100.00,SSE,168,1.0,2.0,59,0.00,,,0.00,,2013-10-26 02:22:00,
2013-10-25 20:32:00,53.0,39.0,-100.00,SSE,168,1.0,2.0,59,0.00,,,0.00,,2013-10-26 02:32:00,
2013-10-25 20:52:00,52.0,38.0,-100.00,WSW,239,0.0,1.0,60,0.00,,,0.00,,2013-10-26 02:52:00,
2013-10-25 21:02:00,52.0,38.0,-100.00,WSW,239,0.0,1.0,60,0.00,,,0.00,,2013-10-26 03:02:00,
2013-10-25 21:22:00,51.0,38.0,-100.00,South,188,1.0,3.0,60,0.00,,,0.00,,2013-10-26 03:22:00,
2013-10-25 21:35:00,51.0,38.0,-100.00,South,188,1.0,3.0,60,0.00,,,0.00,,2013-10-26 03:35:00,
2013-10-25 21:54:00,51.0,37.0,-100.00,NNE,25,3.0,6.0,59,0.00,,,0.00,,2013-10-26 03:54:00,
2013-10-25 22:04:00,51.0,37.0,-100.00,NNE,25,3.0,6.0,59,0.00,,,0.00,,2013-10-26 04:04:00,
2013-10-25 22:24:00,51.0,36.0,-100.00,North,0,3.0,4.0,57,0.00,,,0.00,,2013-10-26 04:24:00,
2013-10-25 22:33:00,51.0,36.0,-100.00,North,0,3.0,4.0,57,0.00,,,0.00,,2013-10-26 04:33:00,
2013-10-25 22:54:00,50.0,36.0,-100.00,NNW,346,4.0,7.0,58,0.00,,,0.00,,2013-10-26 04:54:00,
2013-10-25 23:03:00,50.0,36.0,-100.00,NNW,346,4.0,7.0,58,0.00,,,0.00,,2013-10-26 05:03:00,
2013-10-25 23:23:00,49.0,36.0,-100.00,North,7,7.0,9.0,59,0.00,,,0.00,,2013-10-26 05:23:00,
2013-10-25 23:34:00,49.0,36.0,-100.00,North,7,7.0,9.0,59,0.00,,,0.00,,2013-10-26 05:34:00,
2013-10-25 23:43:00,49.0,36.0,-100.00,North,7,7.0,9.0,59,0.00,,,0.00,,2013-10-26 05:43:00,